createdAt,value
2022-08-30T00:01:45.584Z,1.90
2022-08-30T00:06:45.514Z,1.70
2022-08-30T00:11:45.453Z,1.70
2022-08-30T00:16:45.390Z,1.50
2022-08-30T00:21:45.341Z,1.70
2022-08-30T00:26:45.252Z,1.79
2022-08-30T00:31:45.192Z,1.60
2022-08-30T00:36:45.126Z,1.50
2022-08-30T00:41:45.065Z,1.79
2022-08-30T00:46:45.052Z,1.79
2022-08-30T00:51:44.946Z,1.60
2022-08-30T00:56:44.870Z,1.50
2022-08-30T01:01:44.880Z,1.50
2022-08-30T01:06:44.730Z,1.60
2022-08-30T01:11:44.671Z,1.90
2022-08-30T01:16:44.592Z,2.00
2022-08-30T01:21:44.534Z,1.60
2022-08-30T01:26:44.466Z,1.90
2022-08-30T01:31:44.401Z,1.70
2022-08-30T01:36:44.819Z,2.00
2022-08-30T01:41:44.260Z,1.60
2022-08-30T01:46:44.211Z,1.70
2022-08-30T01:51:44.140Z,1.79
2022-08-30T01:56:44.081Z,3.70
2022-08-30T02:01:44.092Z,4.09
2022-08-30T02:06:43.943Z,2.09
2022-08-30T02:11:43.863Z,1.79
2022-08-30T02:16:43.849Z,3.90
2022-08-30T02:21:43.720Z,2.50
2022-08-30T02:26:43.661Z,1.79
2022-08-30T02:31:43.587Z,2.09
2022-08-30T02:36:43.534Z,1.60
2022-08-30T02:41:43.465Z,2.09
2022-08-30T02:46:43.393Z,2.40
2022-08-30T02:51:43.327Z,1.70
2022-08-30T02:56:43.261Z,2.09
2022-08-30T03:01:43.300Z,1.79
2022-08-30T03:06:43.120Z,1.79
2022-08-30T03:11:43.049Z,1.90
2022-08-30T03:16:43.048Z,2.20
2022-08-30T03:21:42.916Z,2.20
2022-08-30T03:26:46.244Z,2.40
2022-08-30T03:31:52.808Z,2.20
2022-08-30T03:36:42.745Z,2.09
2022-08-30T03:41:42.657Z,2.20
2022-08-30T03:46:42.597Z,2.29
2022-08-30T03:51:42.524Z,2.40
2022-08-30T03:56:42.479Z,2.40
2022-08-30T04:01:42.413Z,2.00
2022-08-30T04:06:42.355Z,2.29
2022-08-30T04:11:42.286Z,2.50
2022-08-30T04:16:42.339Z,2.00
2022-08-30T04:21:43.026Z,2.59
2022-08-30T04:26:42.333Z,2.20
2022-08-30T04:31:42.087Z,2.20
2022-08-30T04:36:41.961Z,2.59
2022-08-30T04:41:41.889Z,2.50
2022-08-30T04:46:44.356Z,2.90
2022-08-30T04:51:41.774Z,3.00
2022-08-30T04:56:41.709Z,3.00
2022-08-30T05:01:45.214Z,2.79
2022-08-30T05:06:41.577Z,3.29
2022-08-30T05:11:41.505Z,3.00
2022-08-30T05:16:41.727Z,2.79
2022-08-30T05:21:41.479Z,2.59
2022-08-30T05:26:41.394Z,2.59
2022-08-30T05:31:41.358Z,2.20
2022-08-30T05:36:41.200Z,2.79
2022-08-30T05:41:41.112Z,3.20
2022-08-30T05:46:41.054Z,2.70
2022-08-30T05:51:42.975Z,2.90
2022-08-30T05:56:40.926Z,3.00
2022-08-30T06:01:40.911Z,2.90
2022-08-30T06:06:40.784Z,2.40
2022-08-30T06:11:40.716Z,2.29
2022-08-30T06:16:40.656Z,2.00
2022-08-30T06:21:40.602Z,2.50
2022-08-30T06:26:40.566Z,2.40
2022-08-30T06:31:40.513Z,2.70
2022-08-30T06:36:40.393Z,2.29
2022-08-30T06:41:40.325Z,2.40
2022-08-30T06:46:40.346Z,2.20
2022-08-30T06:51:40.198Z,2.70
2022-08-30T06:56:42.463Z,2.40
2022-08-30T07:01:40.113Z,2.50
2022-08-30T07:06:40.011Z,3.90
2022-08-30T07:11:40.013Z,3.59
2022-08-30T07:16:39.870Z,4.19
2022-08-30T07:21:39.796Z,3.79
2022-08-30T07:26:39.747Z,3.90
2022-08-30T07:31:39.664Z,3.79
2022-08-30T07:36:39.619Z,3.70
2022-08-30T07:41:39.617Z,4.00
2022-08-30T07:46:39.626Z,4.09
2022-08-30T07:51:39.404Z,4.40
2022-08-30T07:56:39.359Z,3.79
2022-08-30T08:01:39.339Z,3.79
2022-08-30T08:06:39.235Z,3.79
2022-08-30T08:11:39.148Z,5.30
2022-08-30T08:16:39.094Z,4.59
2022-08-30T08:21:39.030Z,4.00
2022-08-30T08:26:38.975Z,4.40
2022-08-30T08:31:38.959Z,4.30
2022-08-30T08:36:38.829Z,3.90
2022-08-30T08:41:38.766Z,3.40
2022-08-30T08:46:38.756Z,3.79
2022-08-30T08:51:38.652Z,4.19
2022-08-30T08:56:38.580Z,3.59
2022-08-30T09:01:38.575Z,4.19
2022-08-30T09:06:38.452Z,3.29
2022-08-30T09:11:38.378Z,2.90
2022-08-30T09:16:38.316Z,3.09
2022-08-30T09:21:38.246Z,3.20
2022-08-30T09:26:38.177Z,3.29
2022-08-30T09:31:38.115Z,2.59
2022-08-30T09:36:38.050Z,3.00
2022-08-30T09:41:37.980Z,2.29
2022-08-30T09:46:37.979Z,1.90
2022-08-30T09:51:37.841Z,4.80
2022-08-30T09:56:37.802Z,1.70
2022-08-30T10:01:37.809Z,1.29
2022-08-30T10:06:37.663Z,1.79
2022-08-30T10:11:37.582Z,2.00
2022-08-30T10:16:37.523Z,1.10
2022-08-30T10:21:37.467Z,1.60
2022-08-30T10:26:37.394Z,1.50
2022-08-30T10:31:37.328Z,1.50
2022-08-30T10:36:37.276Z,1.50
2022-08-30T10:41:37.193Z,1.70
2022-08-30T10:46:37.137Z,1.29
2022-08-30T10:51:37.064Z,1.50
2022-08-30T10:56:37.021Z,1.50
2022-08-30T11:01:36.977Z,1.50
2022-08-30T11:06:36.882Z,1.60
2022-08-30T11:11:36.815Z,1.39
2022-08-30T11:16:36.764Z,1.50
2022-08-30T11:21:36.697Z,1.70
2022-08-30T11:26:36.629Z,1.39
2022-08-30T11:31:36.552Z,1.70
2022-08-30T11:41:41.578Z,1.39
2022-08-30T11:46:36.370Z,1.70
2022-08-30T11:51:36.317Z,1.29
2022-08-30T11:56:36.283Z,1.20
2022-08-30T12:01:50.508Z,1.60
2022-08-30T12:06:37.213Z,1.70
2022-08-30T12:11:36.060Z,1.10
2022-08-30T12:16:36.049Z,2.20
2022-08-30T12:21:44.955Z,1.70
2022-08-30T12:26:35.861Z,2.09
2022-08-30T12:31:35.886Z,1.79
2022-08-30T12:36:35.725Z,1.60
2022-08-30T12:41:35.653Z,1.70
2022-08-30T12:46:35.593Z,2.09
2022-08-30T12:51:35.527Z,2.00
2022-08-30T12:56:49.875Z,2.29
2022-08-30T13:01:36.633Z,1.90
2022-08-30T13:06:35.331Z,1.79
2022-08-30T13:11:35.251Z,1.90
2022-08-30T13:16:35.223Z,2.50
2022-08-30T13:21:35.116Z,2.00
2022-08-30T13:26:35.055Z,2.20
2022-08-30T13:31:35.016Z,2.00
2022-08-30T13:36:35.364Z,2.00
2022-08-30T13:41:34.850Z,2.00
2022-08-30T13:46:34.856Z,1.90
2022-08-30T13:51:34.718Z,2.40
2022-08-30T13:56:34.668Z,2.29
2022-08-30T14:02:07.596Z,1.70
2022-08-30T14:06:35.682Z,1.90
2022-08-30T14:11:34.452Z,1.60
2022-08-30T14:16:34.565Z,1.79
2022-08-30T14:21:34.332Z,1.90
2022-08-30T14:26:34.275Z,1.79
2022-08-30T14:31:34.237Z,1.79
2022-08-30T14:36:34.137Z,1.60
2022-08-30T14:41:34.073Z,2.00
2022-08-30T14:46:34.091Z,1.70
2022-08-30T14:51:33.937Z,2.20
2022-08-30T14:56:33.881Z,2.40
2022-08-30T15:01:33.941Z,1.70
2022-08-30T15:06:33.755Z,1.79
2022-08-30T15:11:33.680Z,2.09
2022-08-30T15:16:33.711Z,1.90
2022-08-30T15:21:33.552Z,2.29
2022-08-30T15:26:33.509Z,1.79
2022-08-30T15:31:33.500Z,1.79
2022-08-30T15:36:33.374Z,1.90
2022-08-30T15:41:33.306Z,3.09
2022-08-30T15:46:33.303Z,2.40
2022-08-30T15:51:41.044Z,2.29
2022-08-30T15:56:33.139Z,2.20
2022-08-30T16:01:33.101Z,1.90
2022-08-30T16:06:33.012Z,2.09
2022-08-30T16:11:32.931Z,1.90
2022-08-30T16:16:32.981Z,1.90
2022-08-30T16:21:32.807Z,1.90
2022-08-30T16:26:32.749Z,2.00
2022-08-30T16:31:32.766Z,2.29
2022-08-30T16:36:32.621Z,2.09
2022-08-30T16:41:32.717Z,1.90
2022-08-30T16:46:33.416Z,2.29
2022-08-30T16:51:32.420Z,2.20
2022-08-30T16:56:32.365Z,2.09
2022-08-30T17:01:32.475Z,2.20
2022-08-30T17:06:32.257Z,2.00
2022-08-30T17:11:32.160Z,2.20
2022-08-30T17:16:32.150Z,2.20
2022-08-30T17:21:32.041Z,1.90
2022-08-30T17:26:31.970Z,2.00
2022-08-30T17:31:31.979Z,2.00
2022-08-30T17:36:31.841Z,1.90
2022-08-30T17:41:31.773Z,2.00
2022-08-30T17:46:31.758Z,2.50
2022-08-30T17:51:31.633Z,2.40
2022-08-30T17:56:35.517Z,3.00
2022-08-30T18:01:31.581Z,2.50
2022-08-30T18:06:31.452Z,2.29
2022-08-30T18:11:31.376Z,2.09
2022-08-30T18:16:31.427Z,2.00
2022-08-30T18:21:31.256Z,2.50
2022-08-30T18:26:31.189Z,3.20
2022-08-30T18:31:31.112Z,2.90
2022-08-30T18:36:31.067Z,2.59
2022-08-30T18:41:30.990Z,3.70
2022-08-30T18:46:30.930Z,2.70
2022-08-30T18:51:30.853Z,4.80
2022-08-30T18:56:33.170Z,3.79
2022-08-30T19:01:30.822Z,2.79
2022-08-30T19:06:30.675Z,2.50
2022-08-30T19:11:30.596Z,3.50
2022-08-30T19:16:30.537Z,2.79
2022-08-30T19:21:30.473Z,2.70
2022-08-30T19:26:30.420Z,2.70
2022-08-30T19:31:30.339Z,3.59
2022-08-30T19:36:30.280Z,2.79
2022-08-30T19:41:30.221Z,3.09
2022-08-30T19:46:30.155Z,3.00
2022-08-30T19:51:30.083Z,2.79
2022-08-30T19:56:30.015Z,2.59
2022-08-30T20:01:33.044Z,2.90
2022-08-30T20:06:29.882Z,2.90
2022-08-30T20:11:29.821Z,4.50
2022-08-30T20:16:37.289Z,3.00
2022-08-30T20:21:29.669Z,2.59
2022-08-30T20:26:33.775Z,2.59
2022-08-30T20:31:29.609Z,1.50
2022-08-30T20:36:29.472Z,1.70
2022-08-30T20:41:29.403Z,2.09
2022-08-30T20:46:33.892Z,1.90
2022-08-30T20:51:29.260Z,1.60
2022-08-30T20:56:29.201Z,1.50
2022-08-30T21:01:29.168Z,1.79
2022-08-30T21:06:29.065Z,1.70
2022-08-30T21:11:28.992Z,1.60
2022-08-30T21:16:28.983Z,1.29
2022-08-30T21:21:28.861Z,1.70
2022-08-30T21:26:28.810Z,1.90
2022-08-30T21:31:28.729Z,1.60
2022-08-30T21:36:28.673Z,1.70
2022-08-30T21:41:28.598Z,1.70
2022-08-30T21:46:28.567Z,1.90
2022-08-30T21:51:28.465Z,1.50
2022-08-30T21:56:28.409Z,1.70
2022-08-30T22:01:28.409Z,1.90
2022-08-30T22:06:30.839Z,1.50
2022-08-30T22:11:28.208Z,2.20
2022-08-30T22:16:28.191Z,1.79
2022-08-30T22:21:28.080Z,1.79
2022-08-30T22:26:28.035Z,1.79
2022-08-30T22:31:28.032Z,2.00
2022-08-30T22:36:32.395Z,1.60
2022-08-30T22:41:31.207Z,1.90
2022-08-30T22:46:33.808Z,1.90
2022-08-30T22:51:27.705Z,1.70
2022-08-30T22:56:27.654Z,2.00
2022-08-30T23:01:27.635Z,1.60
2022-08-30T23:06:27.509Z,1.70
2022-08-30T23:11:27.462Z,1.70
2022-08-30T23:16:27.455Z,1.90
2022-08-30T23:21:27.324Z,2.00
2022-08-30T23:26:27.250Z,1.90
2022-08-30T23:31:27.226Z,1.50
2022-08-30T23:36:27.130Z,2.00
2022-08-30T23:41:30.269Z,1.50
2022-08-30T23:46:26.996Z,1.60
2022-08-30T23:51:26.933Z,1.70
2022-08-30T23:56:26.856Z,1.60
